Air Resources Laboratory banner image
Air Resources Laboratory web site National Oceanic and Atmospheric Administration (NOAA)

nh metar


KAFN 121552Z AUTO 00000KT 3/4SM -SN BR SCT008 BKN017 OVC030 M01/M01 A2961 RMK
 AO2 SLP043 P0004 T10061011=
KASH 121556Z 00000KT 1/2SM -SN FZFG OVC006 M01/M02 A2968 RMK AO2 SLP061 P0000
 T10111022=
KBML 121552Z AUTO 33004KT 1 1/4SM -SN BR BKN026 OVC038 M08/M10 A2969 RMK AO2
 SLP079 P0004 T10831100=
KCON 121551Z AUTO 08008KT 1/2SM SN FZFG OVC011 M03/M05 A2969 RMK AO2 SLP059
 P0006 T10331050=
KCWN 121558Z AUTO 00000KT 10SM CLR 10/M15 A3035 RMK AO2 SLP167 T00951149=
KDAW 121551Z AUTO 03007KT 3/4SM -SN BR OVC011 M06/M07 A2972 RMK AO2 PRESFR
 SLP064 P0000 T10561067=
KEEN 121556Z AUTO VRB03KT 3SM -SN BR SCT012 OVC028 01/M01 A2960 RMK AO2 SLP045
 P0000 T00111011 FZRANO=
KHIE 121552Z AUTO 33006KT 3SM -SN BKN036 BKN042 OVC049 M03/M06 A2962 RMK AO2
 SLP049 P0000 T10281056=
KLCI 121556Z AUTO 04009KT 1/2SM -SN FZFG BKN010 OVC018 M06/M08 A2970 RMK AO2
 CIG 007V014 SLP076 P0000 T10611078 FZRANO=
KLEB 121553Z 04006KT 2SM -SN BR SCT016 OVC031 M03/M05 A2961 RMK AO2 SLP039
 P0001 T10281050=
KMHT 121553Z 06004KT 1/2SM R35/4000VP6000FT -SN BR OVC012 M02/M04 A2967 RMK AO2
 SFC VIS 3/4 PRESFR SLP065 P0004 T10221039=
KMWN 121549Z 16045G56KT 0SM SN FZFG BLSN VV000 M11/M11 RMK VRY LGT ICG=
KPSM 121556Z 03006KT 5/8SM R34/4500VP6000FT -SN BR VV005 M04/M06 A2970 RMK AO2A
 PRESFR SLP061 P0004 T10401056=